Emerald Isle, North Carolina
Current Conditions -  °F | °C
As of 2:57 PM on Tuesday 21 Oct 2014 (Local Time) from KNJM Reporting Station
Clear Clear  
Wind Chill: 74°   Ceiling: Unl
Heat Index: 74°   Visibility: 10mi
Dew Point: 59°   Wind: 10mph
Humidity: 59%   Direction: 200°SSW
Pressure: 29.85"   Gusts: NA
Location:  34.68°N, 76.95°W
Report Text: KNJM 211857Z AUTO 20009KT 10SM CLR 23/15 A2985 RMK AO2 SLP112 T02330150 TSNO
Loading
Personal Weather Stations






























Interactive Weather Map
Tropical Storm Tracking
New forecast layout! Learn more

10-Day Weather Forecast

Advertisements
Track Severe Weather on mobile